Grande Europa — ICGE — position and weather

sailwx.info

Track history (hours):
 
Tides and Currents Weather Stations Pressure Air Temp Water Temp Dewpoint Dewpoint Depression Visibility Wind Speed Wind Dir Waves Ship Positions

Grande Europa

Last reported at 2014-Aug-02 02:23 UTC. Time now 2014-Aug-02 02:44 UTC.
Position N 51°21' W 003°26'.

Length 183 m; draft 8.3 m.

Type: Ship (hazmat cat D). MMSI: 247206000.

Date/timePositionNaut miles runAvg speedWind from/ knotsBaromVisibWave heightAir tempDewpointWater temp
2014-Aug-02 02:23N 51°21' W 003°26'1416.4
2014-Aug-02 01:33N 51°23' W 003°05'1514.2
2014-Aug-02 00:31N 51°30' W 002°44'0 0.5
2014-Aug-01 23:31N 51°30' W 002°43'0 0.0
2014-Aug-01 22:28N 51°30' W 002°43'0 0.0
2014-Aug-01 21:31N 51°30' W 002°43'0 0.0
2014-Aug-01 20:28N 51°30' W 002°43'0 0.0
2014-Aug-01 19:16N 51°30' W 002°43'0 0.0
2014-Aug-01 18:28N 51°30' W 002°43'0 0.0
2014-Aug-01 17:16N 51°30' W 002°43'0 0.0
2014-Aug-01 16:22N 51°30' W 002°43'0 0.0
2014-Aug-01 15:16N 51°30' W 002°43'0 0.0
2014-Aug-01 14:16N 51°30' W 002°43'0 0.0
2014-Aug-01 12:28N 51°30' W 002°43'0 0.0
2014-Aug-01 11:16N 51°30' W 002°43'0 0.0
2014-Aug-01 10:22N 51°30' W 002°43'0 0.0
2014-Aug-01 09:22N 51°30' W 002°43'0 0.5
2014-Aug-01 08:33N 51°30' W 002°43'1 0.7
2014-Aug-01 07:33N 51°30' W 002°44'1615.7
2014-Aug-01 06:33N 51°22' W 003°06'11510.4
2014-Jul-31 19:32N 50°35' W 005°52'71215.4
2014-Jul-29 21:25N 39°03' W 009°52'1415.6
2014-Jul-29 20:32N 38°50' W 009°51'1615.2
2014-Jul-29 19:29N 38°34' W 009°45'1515.7
2014-Jul-29 18:33N 38°27' W 009°29'1615.5
2014-Jul-29 17:33N 38°21' W 009°10'1414.6
2014-Jul-29 16:33N 38°30' W 008°55'2 2.3
2014-Jul-29 15:31N 38°31' W 008°53'0 0.0
2014-Jul-29 14:31N 38°31' W 008°53'0 0.0
2014-Jul-29 13:31N 38°31' W 008°53'0 0.0
2014-Jul-29 12:31N 38°31' W 008°53'0 0.0
2014-Jul-29 11:28N 38°31' W 008°53'0 0.0
2014-Jul-29 10:31N 38°31' W 008°53'1 1.2
2014-Jul-29 09:33N 38°31' W 008°54'10 9.7
2014-Jul-29 08:33N 38°22' W 009°00'1616.2
2014-Jul-29 07:33N 38°06' W 009°05'1817.5
2014-Jul-29 06:33N 37°49' W 009°10'1817.9
2014-Jul-29 05:33N 37°32' W 009°14'1817.7
2014-Jul-29 04:33N 37°14' W 009°18'1817.6
2014-Jul-29 03:31N 36°56' W 009°20'1717.6
2014-Jul-29 02:34N 36°44' W 009°06'1818.0
2014-Jul-29 01:32N 36°39' W 008°44'1717.7
2014-Jul-29 00:33N 36°32' W 008°24'1817.8
2014-Jul-28 23:33N 36°27' W 008°03'1817.6
2014-Jul-28 22:33N 36°22' W 007°42'1817.5
2014-Jul-28 21:33N 36°17' W 007°21'4317.9
2014-Jul-28 19:10N 36°03' W 006°31'5515.3
2014-Jul-28 15:33N 36°01' W 005°23'27816.3
2014-Jul-27 22:33N 36°56' E 000°16'1717.0
2014-Jul-27 21:33N 37°00' E 000°36'1716.9
2014-Jul-27 20:33N 37°04' E 000°57'3416.9
2014-Jul-27 18:32N 37°13' E 001°38'1616.8
2014-Jul-27 17:33N 37°17' E 001°58'2117.2
2014-Jul-27 16:19N 37°22' E 002°24'3817.0
2014-Jul-27 14:05N 37°31' E 003°10'22517.3
2014-Jul-27 01:06N 38°27' E 007°47'1118.2
2014-Jul-27 00:30N 38°29' E 008°01'1718.0
2014-Jul-26 23:33N 38°34' E 008°22'1817.9
2014-Jul-26 22:33N 38°38' E 008°44'1818.2
2014-Jul-26 21:33N 38°42' E 009°07'5 4.7
2014-Jul-26 20:32N 38°43' E 009°13'2 1.7
2014-Jul-26 19:33N 38°44' E 009°11'6 6.1
2014-Jul-26 18:33N 38°48' E 009°17'2217.5
2014-Jul-26 17:18N 38°56' E 009°43'19816.6
2014-Jul-26 05:22N 40°15' E 013°38'1417.0
2014-Jul-26 04:33N 40°21' E 013°55'1716.9
2014-Jul-26 03:33N 40°28' E 014°15'1817.0
2014-Jul-26 02:30N 40°35' E 014°37'5 0.1
2014-Jul-24 13:10N 40°33' E 014°43'914.0
2014-Jul-24 12:34N 40°24' E 014°44'1913.9
2014-Jul-24 11:10N 40°05' E 014°48'  
Track history (hours):
 
Tides and Currents Weather Stations Pressure Air Temp Water Temp Dewpoint Dewpoint Depression Visibility Wind Speed Wind Dir Waves Ship Positions

Grande Europa

Last reported at 2014-Aug-02 02:23 UTC. Time now 2014-Aug-02 02:44 UTC.
Position N 51°21' W 003°26'.

Length 183 m; draft 8.3 m.

Type: Ship (hazmat cat D). MMSI: 247206000.

Date/timePositionNaut miles runAvg speedWind from/ knotsBaromVisibWave heightAir tempDewpointWater temp
2014-Aug-02 02:23N 51°21' W 003°26'1416.4
2014-Aug-02 01:33N 51°23' W 003°05'1514.2
2014-Aug-02 00:31N 51°30' W 002°44'0 0.5
2014-Aug-01 23:31N 51°30' W 002°43'0 0.0
2014-Aug-01 22:28N 51°30' W 002°43'0 0.0
2014-Aug-01 21:31N 51°30' W 002°43'0 0.0
2014-Aug-01 20:28N 51°30' W 002°43'0 0.0
2014-Aug-01 19:16N 51°30' W 002°43'0 0.0
2014-Aug-01 18:28N 51°30' W 002°43'0 0.0
2014-Aug-01 17:16N 51°30' W 002°43'0 0.0
2014-Aug-01 16:22N 51°30' W 002°43'0 0.0
2014-Aug-01 15:16N 51°30' W 002°43'0 0.0
2014-Aug-01 14:16N 51°30' W 002°43'0 0.0
2014-Aug-01 12:28N 51°30' W 002°43'0 0.0
2014-Aug-01 11:16N 51°30' W 002°43'0 0.0
2014-Aug-01 10:22N 51°30' W 002°43'0 0.0
2014-Aug-01 09:22N 51°30' W 002°43'0 0.5
2014-Aug-01 08:33N 51°30' W 002°43'1 0.7
2014-Aug-01 07:33N 51°30' W 002°44'1615.7
2014-Aug-01 06:33N 51°22' W 003°06'11510.4
2014-Jul-31 19:32N 50°35' W 005°52'71215.4
2014-Jul-29 21:25N 39°03' W 009°52'1415.6
2014-Jul-29 20:32N 38°50' W 009°51'1615.2
2014-Jul-29 19:29N 38°34' W 009°45'1515.7
2014-Jul-29 18:33N 38°27' W 009°29'1615.5
2014-Jul-29 17:33N 38°21' W 009°10'1414.6
2014-Jul-29 16:33N 38°30' W 008°55'2 2.3
2014-Jul-29 15:31N 38°31' W 008°53'0 0.0
2014-Jul-29 14:31N 38°31' W 008°53'0 0.0
2014-Jul-29 13:31N 38°31' W 008°53'0 0.0
2014-Jul-29 12:31N 38°31' W 008°53'0 0.0
2014-Jul-29 11:28N 38°31' W 008°53'0 0.0
2014-Jul-29 10:31N 38°31' W 008°53'1 1.2
2014-Jul-29 09:33N 38°31' W 008°54'10 9.7
2014-Jul-29 08:33N 38°22' W 009°00'1616.2
2014-Jul-29 07:33N 38°06' W 009°05'1817.5
2014-Jul-29 06:33N 37°49' W 009°10'1817.9
2014-Jul-29 05:33N 37°32' W 009°14'1817.7
2014-Jul-29 04:33N 37°14' W 009°18'1817.6
2014-Jul-29 03:31N 36°56' W 009°20'1717.6
2014-Jul-29 02:34N 36°44' W 009°06'1818.0
2014-Jul-29 01:32N 36°39' W 008°44'1717.7
2014-Jul-29 00:33N 36°32' W 008°24'1817.8
2014-Jul-28 23:33N 36°27' W 008°03'1817.6
2014-Jul-28 22:33N 36°22' W 007°42'1817.5
2014-Jul-28 21:33N 36°17' W 007°21'4317.9
2014-Jul-28 19:10N 36°03' W 006°31'5515.3
2014-Jul-28 15:33N 36°01' W 005°23'27816.3
2014-Jul-27 22:33N 36°56' E 000°16'1717.0
2014-Jul-27 21:33N 37°00' E 000°36'1716.9
2014-Jul-27 20:33N 37°04' E 000°57'3416.9
2014-Jul-27 18:32N 37°13' E 001°38'1616.8
2014-Jul-27 17:33N 37°17' E 001°58'2117.2
2014-Jul-27 16:19N 37°22' E 002°24'3817.0
2014-Jul-27 14:05N 37°31' E 003°10'22517.3
2014-Jul-27 01:06N 38°27' E 007°47'1118.2
2014-Jul-27 00:30N 38°29' E 008°01'1718.0
2014-Jul-26 23:33N 38°34' E 008°22'1817.9
2014-Jul-26 22:33N 38°38' E 008°44'1818.2
2014-Jul-26 21:33N 38°42' E 009°07'5 4.7
2014-Jul-26 20:32N 38°43' E 009°13'2 1.7
2014-Jul-26 19:33N 38°44' E 009°11'6 6.1
2014-Jul-26 18:33N 38°48' E 009°17'2217.5
2014-Jul-26 17:18N 38°56' E 009°43'19816.6
2014-Jul-26 05:22N 40°15' E 013°38'1417.0
2014-Jul-26 04:33N 40°21' E 013°55'1716.9
2014-Jul-26 03:33N 40°28' E 014°15'1817.0
2014-Jul-26 02:30N 40°35' E 014°37'5 0.1
2014-Jul-24 13:10N 40°33' E 014°43'914.0
2014-Jul-24 12:34N 40°24' E 014°44'1913.9
2014-Jul-24 11:10N 40°05' E 014°48'  

Dump ship's entire track history